createdAt,value
2022-12-14T00:00:32.341Z,98634.98
2022-12-14T00:03:38.296Z,98635.55
2022-12-14T00:06:44.428Z,98629.27
2022-12-14T00:09:50.073Z,98633.67
2022-12-14T00:12:56.042Z,98634.77
2022-12-14T00:16:05.254Z,98628.56
2022-12-14T00:19:13.584Z,98625.20
2022-12-14T00:22:19.143Z,98620.71
2022-12-14T00:25:24.949Z,98618.55
2022-12-14T00:28:30.538Z,98621.00
2022-12-14T00:31:36.621Z,98627.89
2022-12-14T00:34:40.714Z,98626.33
2022-12-14T00:37:49.002Z,98620.16
2022-12-14T00:40:55.364Z,98617.40
2022-12-14T00:44:00.837Z,98614.70
2022-12-14T00:47:06.496Z,98616.98
2022-12-14T00:50:29.653Z,98618.56
2022-12-14T00:53:35.207Z,98619.87
2022-12-14T00:56:40.757Z,98618.48
2022-12-14T00:59:46.409Z,98624.38
2022-12-14T01:02:52.061Z,98621.84
2022-12-14T01:05:57.815Z,98618.52
2022-12-14T01:09:03.603Z,98613.27
2022-12-14T01:12:09.700Z,98614.62
2022-12-14T01:15:13.849Z,98614.42
2022-12-14T01:18:20.635Z,98614.28
2022-12-14T01:21:27.442Z,98614.94
2022-12-14T01:24:33.058Z,98610.30
2022-12-14T01:27:38.710Z,98609.00
2022-12-14T01:30:44.367Z,98610.85
2022-12-14T01:33:50.464Z,98607.46
2022-12-14T01:36:54.543Z,98610.08
2022-12-14T01:40:00.803Z,98604.83
2022-12-14T01:43:11.583Z,98604.24
2022-12-14T01:46:22.699Z,98603.22
2022-12-14T01:49:33.326Z,98600.13
2022-12-14T01:52:42.256Z,98594.04
2022-12-14T01:55:53.228Z,98594.92
2022-12-14T01:59:03.081Z,98593.35
2022-12-14T02:02:12.194Z,98592.17
2022-12-14T02:05:19.605Z,98592.36
2022-12-14T02:08:26.698Z,98588.86
2022-12-14T02:11:40.739Z,98583.11
2022-12-14T02:14:47.312Z,98582.05
2022-12-14T02:17:52.963Z,98579.81
2022-12-14T02:21:17.364Z,98580.55
2022-12-14T02:24:48.813Z,98580.55
2022-12-14T02:28:10.644Z,98581.94
2022-12-14T02:31:21.662Z,98581.20
2022-12-14T02:34:36.078Z,98586.11
2022-12-14T02:37:49.257Z,98582.34
2022-12-14T02:41:02.710Z,98576.73
2022-12-14T02:44:21.908Z,98571.59
2022-12-14T02:47:37.403Z,98562.98
2022-12-14T02:50:52.157Z,98560.24
2022-12-14T02:54:02.337Z,98557.08
2022-12-14T02:57:13.623Z,98559.80
2022-12-14T03:00:21.157Z,98559.04
2022-12-14T03:03:27.061Z,98559.92
2022-12-14T03:06:32.909Z,98555.42
2022-12-14T03:09:38.665Z,98554.30
2022-12-14T03:12:47.138Z,98553.70
2022-12-14T03:15:59.363Z,98560.73
2022-12-14T03:19:12.264Z,98559.44
2022-12-14T03:22:21.915Z,98559.65
2022-12-14T03:25:33.445Z,98560.07
2022-12-14T03:28:45.920Z,98557.16
2022-12-14T03:31:54.864Z,98555.59
2022-12-14T03:35:02.698Z,98555.10
2022-12-14T03:38:18.069Z,98553.55
2022-12-14T03:41:30.886Z,98550.48
2022-12-14T03:44:48.796Z,98546.46
2022-12-14T03:48:09.532Z,98546.95
2022-12-14T03:51:21.431Z,98547.50
2022-12-14T03:54:37.445Z,98544.55
2022-12-14T03:57:56.898Z,98539.89
2022-12-14T04:01:12.052Z,98538.81
2022-12-14T04:04:23.153Z,98536.24
2022-12-14T04:07:38.950Z,98538.38
2022-12-14T04:11:03.542Z,98535.34
2022-12-14T04:14:32.566Z,98531.50
2022-12-14T04:17:59.181Z,98519.19
2022-12-14T04:21:10.466Z,98516.73
2022-12-14T04:24:39.150Z,98516.12
2022-12-14T04:27:50.544Z,98511.13
2022-12-14T04:30:58.448Z,98506.96
2022-12-14T04:34:07.067Z,98510.48
2022-12-14T04:37:16.869Z,98509.80
2022-12-14T04:40:25.993Z,98512.65
2022-12-14T04:43:36.518Z,98509.76
2022-12-14T04:46:44.037Z,98510.95
2022-12-14T04:49:54.580Z,98507.54
2022-12-14T04:53:06.578Z,98502.48
2022-12-14T04:56:20.630Z,98506.44
2022-12-14T04:59:27.366Z,98503.11
2022-12-14T05:02:46.191Z,98499.65
2022-12-14T05:06:03.490Z,98496.42
2022-12-14T05:09:22.242Z,98489.25
2022-12-14T05:12:36.298Z,98486.44
2022-12-14T05:15:45.389Z,98482.23
2022-12-14T05:18:51.478Z,98473.58
2022-12-14T05:21:57.466Z,98470.40
2022-12-14T05:25:01.467Z,98467.95
2022-12-14T05:28:07.733Z,98464.56
2022-12-14T05:31:13.555Z,98460.10
2022-12-14T05:34:19.429Z,98454.85
2022-12-14T05:37:25.098Z,98451.30
2022-12-14T05:40:30.748Z,98447.80
2022-12-14T05:43:36.601Z,98452.77
2022-12-14T05:46:42.257Z,98453.94
2022-12-14T05:49:49.286Z,98460.73
2022-12-14T05:52:55.926Z,98465.50
2022-12-14T05:56:01.567Z,98466.63
2022-12-14T05:59:07.322Z,98467.52
2022-12-14T06:02:13.100Z,98467.23
2022-12-14T06:05:19.098Z,98462.94
2022-12-14T06:08:24.685Z,98462.55
2022-12-14T06:11:30.340Z,98461.07
2022-12-14T06:14:35.988Z,98465.33
2022-12-14T06:17:45.397Z,98472.13
2022-12-14T06:20:51.082Z,98472.90
2022-12-14T06:23:57.637Z,98465.89
2022-12-14T06:27:03.511Z,98466.08
2022-12-14T06:30:12.153Z,98463.94
2022-12-14T06:33:17.784Z,98454.67
2022-12-14T06:36:24.974Z,98454.16
2022-12-14T06:39:30.555Z,98451.33
2022-12-14T06:42:36.172Z,98447.02
2022-12-14T06:45:42.031Z,98441.91
2022-12-14T06:48:52.157Z,98438.39
2022-12-14T06:51:57.735Z,98437.71
2022-12-14T06:55:03.388Z,98434.05
2022-12-14T06:58:11.860Z,98432.25
2022-12-14T07:01:19.472Z,98431.59
2022-12-14T07:04:25.155Z,98428.59
2022-12-14T07:07:32.856Z,98427.86
2022-12-14T07:10:38.381Z,98424.67
2022-12-14T07:13:43.950Z,98421.33
2022-12-14T07:16:49.439Z,98422.52
2022-12-14T07:19:55.875Z,98425.45
2022-12-14T07:23:01.421Z,98424.40
2022-12-14T07:26:09.165Z,98421.58
2022-12-14T07:29:16.898Z,98417.11
2022-12-14T07:32:22.570Z,98410.88
2022-12-14T07:35:28.123Z,98407.66
2022-12-14T07:38:33.873Z,98405.34
2022-12-14T07:41:39.401Z,98404.59
2022-12-14T07:44:45.386Z,98397.54
2022-12-14T07:47:51.039Z,98389.55
2022-12-14T07:51:01.932Z,98384.61
2022-12-14T07:54:08.858Z,98385.31
2022-12-14T07:57:14.856Z,98387.56
2022-12-14T08:00:19.543Z,98383.19
2022-12-14T08:03:25.448Z,98380.41
2022-12-14T08:06:31.977Z,98378.81
2022-12-14T08:09:37.566Z,98384.01
2022-12-14T08:12:43.114Z,98376.96
2022-12-14T08:15:48.807Z,98377.48
2022-12-14T08:18:55.959Z,98376.55
2022-12-14T08:22:01.604Z,98376.83
2022-12-14T08:25:08.889Z,98364.14
2022-12-14T08:28:14.445Z,98356.09
2022-12-14T08:31:21.884Z,98353.65
2022-12-14T08:34:27.473Z,98354.08
2022-12-14T08:37:33.142Z,98354.42
2022-12-14T08:40:39.609Z,98350.43
2022-12-14T08:43:45.263Z,98342.98
2022-12-14T08:46:50.938Z,98340.39
2022-12-14T08:49:56.976Z,98338.46
2022-12-14T08:53:02.735Z,98339.77
2022-12-14T08:56:11.561Z,98342.73
2022-12-14T08:59:37.137Z,98342.61
2022-12-14T09:02:41.384Z,98341.98
2022-12-14T09:05:47.250Z,98344.55
2022-12-14T09:08:53.208Z,98338.89
2022-12-14T09:12:03.476Z,98336.39
2022-12-14T09:15:11.908Z,98338.38
2022-12-14T09:18:17.395Z,98335.61
2022-12-14T09:21:23.449Z,98337.34
2022-12-14T09:24:29.152Z,98331.71
2022-12-14T09:27:34.801Z,98320.08
2022-12-14T09:30:40.499Z,98316.72
2022-12-14T09:33:46.314Z,98319.88
2022-12-14T09:36:53.155Z,98312.92
2022-12-14T09:39:58.840Z,98309.02
2022-12-14T09:43:07.193Z,98301.59
2022-12-14T09:46:28.471Z,98294.16
2022-12-14T09:49:39.836Z,98286.20
2022-12-14T09:52:50.510Z,98289.92
2022-12-14T09:55:59.078Z,98281.98
2022-12-14T09:59:05.245Z,98287.68
2022-12-14T10:02:33.162Z,98284.30
2022-12-14T10:06:03.420Z,98285.23
2022-12-14T10:09:21.185Z,98285.42
2022-12-14T10:12:43.287Z,98273.59
2022-12-14T10:16:01.098Z,98271.71
2022-12-14T10:19:17.321Z,98271.94
2022-12-14T10:22:22.771Z,98260.59
2022-12-14T10:25:30.985Z,98253.58
2022-12-14T10:28:46.059Z,98251.77
2022-12-14T10:32:00.476Z,98254.52
2022-12-14T10:35:16.192Z,98255.91
2022-12-14T10:38:32.230Z,98256.60
2022-12-14T10:41:49.587Z,98252.73
2022-12-14T10:45:39.137Z,98250.77
2022-12-14T10:48:40.977Z,98244.09
2022-12-14T10:51:51.120Z,98235.31
2022-12-14T10:55:00.109Z,98229.54
2022-12-14T10:58:06.107Z,98223.52
2022-12-14T11:01:16.105Z,98219.71
2022-12-14T11:04:31.955Z,98212.10
2022-12-14T11:07:43.392Z,98208.58
2022-12-14T11:10:49.666Z,98201.84
2022-12-14T11:13:55.109Z,98198.78
2022-12-14T11:17:00.914Z,98191.76
2022-12-14T11:20:19.626Z,98182.12
2022-12-14T11:23:29.520Z,98185.16
2022-12-14T11:26:39.309Z,98190.86
2022-12-14T11:29:49.482Z,98189.77
2022-12-14T11:32:55.412Z,98188.98
2022-12-14T11:36:01.334Z,98183.23
2022-12-14T11:39:19.895Z,98171.17
2022-12-14T11:42:26.764Z,98170.44
2022-12-14T11:45:35.281Z,98169.58
2022-12-14T11:48:50.873Z,98157.63
2022-12-14T11:52:07.589Z,98157.98
2022-12-14T11:55:21.571Z,98154.70
2022-12-14T11:58:33.455Z,98150.65
2022-12-14T12:01:39.511Z,98148.48
2022-12-14T12:04:49.243Z,98149.30
2022-12-14T12:07:57.822Z,98148.52
2022-12-14T12:11:06.253Z,98147.13
2022-12-14T12:14:26.679Z,98144.52
2022-12-14T12:17:44.460Z,98135.05
2022-12-14T12:20:55.237Z,98128.79
2022-12-14T12:24:07.357Z,98125.19
2022-12-14T12:27:17.036Z,98126.55
2022-12-14T12:30:29.339Z,98125.22
2022-12-14T12:33:42.676Z,98122.64
2022-12-14T12:37:24.241Z,98114.70
2022-12-14T12:40:20.531Z,98103.90
2022-12-14T12:43:31.796Z,98100.38
2022-12-14T12:47:07.140Z,98094.70
2022-12-14T12:50:18.707Z,98093.31
2022-12-14T12:53:31.550Z,98082.54
2022-12-14T12:56:44.569Z,98079.45
2022-12-14T12:59:57.632Z,98072.46
2022-12-14T13:03:10.126Z,98065.27
2022-12-14T13:06:23.102Z,98063.98
2022-12-14T13:09:42.010Z,98060.10
2022-12-14T13:12:51.800Z,98053.47
2022-12-14T13:16:04.387Z,98040.59
2022-12-14T13:22:49.548Z,98031.59
2022-12-14T13:26:13.390Z,98024.58
2022-12-14T13:29:39.152Z,98017.98
2022-12-14T13:32:57.542Z,98014.86
2022-12-14T13:36:39.403Z,98006.73
2022-12-14T13:40:25.761Z,98006.55
2022-12-14T13:43:43.237Z,97996.60
2022-12-14T13:46:57.500Z,97986.40
2022-12-14T13:50:49.847Z,97979.78
2022-12-14T13:53:37.083Z,97974.09
2022-12-14T13:56:42.815Z,97969.84
2022-12-14T13:59:53.172Z,97959.48
2022-12-14T14:02:58.875Z,97955.33
2022-12-14T14:06:16.048Z,97946.50
2022-12-14T14:10:01.590Z,97936.03
2022-12-14T14:13:45.481Z,97929.89
2022-12-14T14:16:58.708Z,97920.39
2022-12-14T14:20:27.608Z,97907.50
2022-12-14T14:23:36.031Z,97889.71
2022-12-14T14:26:43.786Z,97887.34
2022-12-14T14:29:51.259Z,97889.57
2022-12-14T14:33:13.526Z,97885.41
2022-12-14T14:36:27.509Z,97874.14
2022-12-14T14:39:56.601Z,97872.89
2022-12-14T14:43:07.683Z,97867.42
2022-12-14T14:46:19.156Z,97858.84
2022-12-14T14:49:32.712Z,97856.41
2022-12-14T14:53:02.439Z,97855.12
2022-12-14T14:56:38.438Z,97853.09
2022-12-14T14:59:58.643Z,97840.73
2022-12-14T15:03:06.584Z,97830.52
2022-12-14T15:06:17.395Z,97815.13
2022-12-14T15:09:31.002Z,97795.97
2022-12-14T15:12:42.904Z,97776.33
2022-12-14T15:15:56.613Z,97774.38
2022-12-14T15:19:24.792Z,97780.46
2022-12-14T15:22:32.523Z,97780.85
2022-12-14T15:25:38.275Z,97773.25
2022-12-14T15:28:43.926Z,97762.30
2022-12-14T15:31:57.602Z,97747.91
2022-12-14T15:35:10.547Z,97740.77
2022-12-14T15:38:24.430Z,97732.05
2022-12-14T15:41:33.169Z,97720.79
2022-12-14T15:44:40.341Z,97704.55
2022-12-14T15:47:49.146Z,97686.66
2022-12-14T15:50:57.033Z,97685.11
2022-12-14T15:54:05.899Z,97683.86
2022-12-14T15:57:18.877Z,97671.52
2022-12-14T16:00:24.692Z,97676.08
2022-12-14T16:03:36.082Z,97677.83
2022-12-14T16:06:44.325Z,97674.91
2022-12-14T16:09:58.932Z,97669.34
2022-12-14T16:13:07.816Z,97664.38
2022-12-14T16:16:16.684Z,97652.83
2022-12-14T16:19:28.624Z,97655.00
2022-12-14T16:22:39.467Z,97654.66
2022-12-14T16:25:55.664Z,97646.99
2022-12-14T16:29:20.309Z,97627.59
2022-12-14T16:32:26.335Z,97624.70
2022-12-14T16:35:35.038Z,97610.36
2022-12-14T16:38:56.130Z,97615.20
2022-12-14T16:42:04.183Z,97619.04
2022-12-14T16:45:37.047Z,97618.59
2022-12-14T16:48:45.854Z,97615.16
2022-12-14T16:52:07.702Z,97613.44
2022-12-14T16:55:17.049Z,97617.77
2022-12-14T16:58:23.113Z,97614.30
2022-12-14T17:01:29.665Z,97616.42
2022-12-14T17:04:37.768Z,97619.58
2022-12-14T17:07:43.651Z,97618.84
2022-12-14T17:10:49.404Z,97619.98
2022-12-14T17:13:54.893Z,97624.10
2022-12-14T17:17:02.981Z,97631.20
2022-12-14T17:20:16.426Z,97631.19
2022-12-14T17:23:22.624Z,97636.62
2022-12-14T17:26:30.970Z,97638.30
2022-12-14T17:29:36.524Z,97633.19
2022-12-14T17:32:42.417Z,97638.27
2022-12-14T17:35:47.944Z,97630.09
2022-12-14T17:38:53.478Z,97629.79
2022-12-14T17:41:59.132Z,97635.40
2022-12-14T17:45:05.257Z,97640.88
2022-12-14T17:48:13.766Z,97645.44
2022-12-14T17:51:25.358Z,97643.66
2022-12-14T17:54:31.262Z,97643.19
2022-12-14T17:57:37.060Z,97633.35
2022-12-14T18:01:01.871Z,97632.27
2022-12-14T18:04:08.735Z,97633.52
2022-12-14T18:07:14.552Z,97629.92
2022-12-14T18:10:20.365Z,97625.95
2022-12-14T18:13:27.534Z,97616.20
2022-12-14T18:16:33.726Z,97623.91
2022-12-14T18:19:39.773Z,97621.65
2022-12-14T18:22:49.650Z,97615.27
2022-12-14T18:25:58.003Z,97606.59
2022-12-14T18:29:03.639Z,97604.90
2022-12-14T18:32:11.335Z,97598.99
2022-12-14T18:35:20.537Z,97598.54
2022-12-14T18:38:26.784Z,97602.02
2022-12-14T18:41:31.368Z,97598.39
2022-12-14T18:44:38.054Z,97595.59
2022-12-14T18:47:43.890Z,97594.52
2022-12-14T18:50:50.518Z,97588.77
2022-12-14T18:53:58.386Z,97583.85
2022-12-14T18:57:04.056Z,97574.05
2022-12-14T19:00:13.081Z,97571.39
2022-12-14T19:03:19.045Z,97565.56
2022-12-14T19:09:51.822Z,97553.89
2022-12-14T19:12:59.037Z,97552.86
2022-12-14T19:16:04.930Z,97550.66
2022-12-14T19:19:10.632Z,97543.26
2022-12-14T19:22:16.385Z,97545.92
2022-12-14T19:25:23.777Z,97544.33
2022-12-14T19:28:33.427Z,97538.58
2022-12-14T19:31:39.332Z,97528.39
2022-12-14T19:34:45.032Z,97511.20
2022-12-14T19:37:51.297Z,97505.02
2022-12-14T19:41:02.717Z,97499.46
2022-12-14T19:44:08.541Z,97496.41
2022-12-14T19:47:14.397Z,97493.04
2022-12-14T19:50:20.402Z,97485.41
2022-12-14T19:53:26.154Z,97480.20
2022-12-14T19:56:32.070Z,97474.05
2022-12-14T19:59:37.822Z,97462.92
2022-12-14T20:02:43.670Z,97468.67
2022-12-14T20:05:58.622Z,97465.70
2022-12-14T20:09:06.671Z,97461.69
2022-12-14T20:12:12.216Z,97460.84
2022-12-14T20:15:18.017Z,97465.11
2022-12-14T20:18:25.158Z,97473.98
2022-12-14T20:21:30.799Z,97470.02
2022-12-14T20:24:37.198Z,97469.68
2022-12-14T20:27:42.921Z,97477.05
2022-12-14T20:30:49.392Z,97472.71
2022-12-14T20:33:55.409Z,97472.33
2022-12-14T20:37:01.164Z,97465.87
2022-12-14T20:40:08.931Z,97466.48
2022-12-14T20:43:14.670Z,97466.69
2022-12-14T20:46:34.904Z,97463.95
2022-12-14T20:49:41.013Z,97456.22
2022-12-14T20:52:46.672Z,97473.73
2022-12-14T20:55:54.985Z,97480.03
2022-12-14T20:59:00.642Z,97473.77
2022-12-14T21:02:06.344Z,97466.72
2022-12-14T21:05:12.452Z,97476.32
2022-12-14T21:08:18.307Z,97475.67
2022-12-14T21:11:42.767Z,97477.66
2022-12-14T21:14:49.347Z,97478.70
2022-12-14T21:17:55.027Z,97459.97
2022-12-14T21:21:06.207Z,97467.89
2022-12-14T21:24:25.729Z,97476.13
2022-12-14T21:27:40.805Z,97475.25
2022-12-14T21:30:46.667Z,97467.84
2022-12-14T21:33:52.674Z,97464.73
2022-12-14T21:36:59.047Z,97461.33
2022-12-14T21:40:05.239Z,97462.11
2022-12-14T21:43:10.963Z,97467.10
2022-12-14T21:46:17.170Z,97475.63
2022-12-14T21:49:23.494Z,97469.49
2022-12-14T21:52:28.331Z,97472.86
2022-12-14T21:55:33.980Z,97479.11
2022-12-14T21:58:39.630Z,97479.98
2022-12-14T22:01:45.718Z,97481.54
2022-12-14T22:04:56.170Z,97484.86
2022-12-14T22:08:02.423Z,97488.84
2022-12-14T22:11:08.484Z,97490.77
2022-12-14T22:14:15.571Z,97493.57
2022-12-14T22:17:21.322Z,97495.69
2022-12-14T22:20:26.975Z,97499.11
2022-12-14T22:23:35.945Z,97502.32
2022-12-14T22:26:45.729Z,97501.27
2022-12-14T22:29:51.217Z,97504.35
2022-12-14T22:32:56.851Z,97499.55
2022-12-14T22:36:02.709Z,97500.32
2022-12-14T22:39:08.361Z,97498.85
2022-12-14T22:42:13.917Z,97502.55
2022-12-14T22:45:19.562Z,97499.08
2022-12-14T22:48:25.214Z,97501.13
2022-12-14T22:51:30.713Z,97505.11
2022-12-14T22:54:38.262Z,97504.30
2022-12-14T22:57:47.443Z,97501.77
2022-12-14T23:00:56.974Z,97493.27
2022-12-14T23:04:03.515Z,97488.98
2022-12-14T23:07:09.368Z,97488.16
2022-12-14T23:10:32.947Z,97488.64
2022-12-14T23:13:56.509Z,97494.09
2022-12-14T23:17:20.595Z,97493.06
2022-12-14T23:20:44.063Z,97490.55
2022-12-14T23:24:07.636Z,97491.36
2022-12-14T23:27:31.002Z,97495.27
2022-12-14T23:30:54.931Z,97499.25
2022-12-14T23:34:18.349Z,97503.31
2022-12-14T23:37:42.545Z,97501.69
2022-12-14T23:41:06.006Z,97497.96
2022-12-14T23:44:29.476Z,97493.72
2022-12-14T23:47:52.741Z,97495.06
2022-12-14T23:51:16.310Z,97503.29
2022-12-14T23:54:39.985Z,97504.26
2022-12-14T23:58:03.047Z,97503.73
